createdAt,value
2015-09-26T00:00:44.877Z,1014.8
2015-09-26T00:01:45.051Z,1014.9
2015-09-26T00:02:44.773Z,1014.9
2015-09-26T00:03:44.713Z,1014.9
2015-09-26T00:04:44.653Z,1014.8
2015-09-26T00:05:44.610Z,1014.8
2015-09-26T00:06:44.596Z,1014.9
2015-09-26T00:07:44.520Z,1014.9
2015-09-26T00:08:44.477Z,1014.8
2015-09-26T00:09:44.651Z,1014.8
2015-09-26T00:10:44.357Z,1014.9
2015-09-26T00:11:44.313Z,1014.8
2015-09-26T00:12:43.534Z,1014.8
2015-09-26T00:13:44.240Z,1014.9
2015-09-26T00:14:44.165Z,1014.9
2015-09-26T00:15:44.121Z,1014.8
2015-09-26T00:16:44.045Z,1015
2015-09-26T00:17:43.282Z,1014.8
2015-09-26T00:18:43.957Z,1014.9
2015-09-26T00:19:43.897Z,1014.9
2015-09-26T00:20:44.056Z,1014.9
2015-09-26T00:21:43.809Z,1014.9
2015-09-26T00:22:43.748Z,1014.9
2015-09-26T00:23:43.705Z,1014.9
2015-09-26T00:24:43.864Z,1014.9
2015-09-26T00:25:43.601Z,1014.8
2015-09-26T00:26:43.556Z,1015
2015-09-26T00:27:43.512Z,1014.9
2015-09-26T00:28:43.453Z,1014.9
2015-09-26T00:29:43.612Z,1014.9
2015-09-26T00:30:43.354Z,1014.9
2015-09-26T00:31:43.138Z,1014.9
2015-09-26T00:32:43.453Z,1015
2015-09-26T00:33:43.175Z,1014.9
2015-09-26T00:34:43.130Z,1015
2015-09-26T00:35:43.087Z,1014.9
2015-09-26T00:36:43.042Z,1014.9
2015-09-26T00:37:42.982Z,1015
2015-09-26T00:38:42.938Z,1014.8
2015-09-26T00:39:42.894Z,1015
2015-09-26T00:40:42.835Z,1014.9
2015-09-26T00:41:42.791Z,1014.9
2015-09-26T00:42:42.966Z,1014.9
2015-09-26T00:43:42.685Z,1014.9
2015-09-26T00:44:42.627Z,1014.9
2015-09-26T00:45:42.769Z,1015
2015-09-26T00:46:42.519Z,1014.9
2015-09-26T00:47:42.476Z,1015
2015-09-26T00:48:42.619Z,1015
2015-09-26T00:49:42.372Z,1015
2015-09-26T00:50:42.312Z,1014.9
2015-09-26T00:51:42.268Z,1015
2015-09-26T00:52:42.208Z,1014.9
2015-09-26T00:53:42.163Z,1015
2015-09-26T00:54:42.104Z,1015
2015-09-26T00:55:42.154Z,1015
2015-09-26T00:56:42.015Z,1015
2015-09-26T00:57:41.971Z,1015.1
2015-09-26T00:58:41.912Z,1014.9
2015-09-26T00:59:41.852Z,1014.9
2015-09-26T01:00:41.823Z,1015
2015-09-26T01:01:41.764Z,1015
2015-09-26T01:02:41.720Z,1015
2015-09-26T01:03:41.847Z,1015.1
2015-09-26T01:04:41.616Z,1015.1
2015-09-26T01:05:41.540Z,1015
2015-09-26T01:06:41.512Z,1015
2015-09-26T01:07:41.451Z,1015
2015-09-26T01:08:41.408Z,1015
2015-09-26T01:09:41.192Z,1015
2015-09-26T01:10:41.304Z,1015
2015-09-26T01:11:41.244Z,1015
2015-09-26T01:12:41.200Z,1015
2015-09-26T01:13:41.139Z,1014.9
2015-09-26T01:14:41.080Z,1015
2015-09-26T01:15:41.036Z,1015.2
2015-09-26T01:16:40.992Z,1015
2015-09-26T01:17:40.933Z,1015
2015-09-26T01:18:40.888Z,1015.2
2015-09-26T01:19:40.844Z,1015.1
2015-09-26T01:20:40.800Z,1015.2
2015-09-26T01:21:40.756Z,1015.1
2015-09-26T01:22:40.681Z,1015.3
2015-09-26T01:23:40.636Z,1015.1
2015-09-26T01:24:40.827Z,1015.1
2015-09-26T01:25:40.532Z,1015.1
2015-09-26T01:26:40.488Z,1015.1
2015-09-26T01:27:40.444Z,1015.1
2015-09-26T01:28:40.384Z,1015
2015-09-26T01:29:40.341Z,1015.2
2015-09-26T01:30:40.280Z,1015.1
2015-09-26T01:31:40.236Z,1015.1
2015-09-26T01:32:40.192Z,1015
2015-09-26T01:33:40.352Z,1015.1
2015-09-26T01:34:46.400Z,1015
2015-09-26T01:35:40.060Z,1015
2015-09-26T01:36:39.250Z,1015
2015-09-26T01:37:39.205Z,1015.3
2015-09-26T01:38:40.146Z,1015.1
2015-09-26T01:39:39.867Z,1015.1
2015-09-26T01:40:39.808Z,1015.1
2015-09-26T01:41:39.763Z,1015.1
2015-09-26T01:42:39.704Z,1015.2
2015-09-26T01:43:39.660Z,1015.2
2015-09-26T01:44:39.802Z,1015.1
2015-09-26T01:45:39.555Z,1015.1
2015-09-26T01:46:39.496Z,1015
2015-09-26T01:47:39.436Z,1015.1
2015-09-26T01:48:39.408Z,1015.1
2015-09-26T01:49:39.582Z,1015.1
2015-09-26T01:50:39.303Z,1015.1
2015-09-26T01:51:39.243Z,1015.1
2015-09-26T01:52:39.200Z,1015.1
2015-09-26T01:53:39.140Z,1015.1
2015-09-26T01:54:39.095Z,1015.1
2015-09-26T01:55:39.036Z,1014.9
2015-09-26T01:56:38.973Z,1015
2015-09-26T01:57:38.929Z,1015
2015-09-26T01:58:38.885Z,1015.1
2015-09-26T01:59:39.012Z,1015.2
2015-09-26T02:00:38.781Z,1015.1
2015-09-26T02:01:38.721Z,1015.1
2015-09-26T02:02:38.678Z,1015.1
2015-09-26T02:03:38.633Z,1015.1
2015-09-26T02:04:38.776Z,1015.2
2015-09-26T02:05:38.545Z,1015.1
2015-09-26T02:06:38.470Z,1015.2
2015-09-26T02:07:38.409Z,1015.1
2015-09-26T02:08:38.365Z,1015
2015-09-26T02:09:38.337Z,1015.1
2015-09-26T02:10:37.495Z,1015.2
2015-09-26T02:11:38.217Z,1015.1
2015-09-26T02:12:38.158Z,1015.2
2015-09-26T02:13:38.114Z,1015.2
2015-09-26T02:14:38.054Z,1015.2
2015-09-26T02:15:38.010Z,1015.3
2015-09-26T02:16:37.950Z,1015.2
2015-09-26T02:17:37.906Z,1015.1
2015-09-26T02:18:37.705Z,1015.2
2015-09-26T02:19:37.802Z,1015.2
2015-09-26T02:20:37.773Z,1015.1
2015-09-26T02:21:37.697Z,1015.3
2015-09-26T02:22:37.653Z,1015.1
2015-09-26T02:23:37.578Z,1015.3
2015-09-26T02:24:37.550Z,1015.3
2015-09-26T02:25:37.490Z,1015.2
2015-09-26T02:26:37.461Z,1015.2
2015-09-26T02:27:37.381Z,1015.2
2015-09-26T02:28:37.353Z,1015.3
2015-09-26T02:29:37.278Z,1015.2
2015-09-26T02:30:37.234Z,1015.2
2015-09-26T02:31:37.189Z,1015.2
2015-09-26T02:32:37.130Z,1015.2
2015-09-26T02:33:37.086Z,1015.1
2015-09-26T02:34:37.041Z,1015.3
2015-09-26T02:35:36.981Z,1015.2
2015-09-26T02:36:36.921Z,1015.2
2015-09-26T02:37:36.877Z,1015.1
2015-09-26T02:38:36.083Z,1015.1
2015-09-26T02:39:36.789Z,1015.2
2015-09-26T02:40:36.730Z,1015.2
2015-09-26T02:41:36.670Z,1015.1
2015-09-26T02:42:36.625Z,1015.1
2015-09-26T02:43:36.582Z,1015.3
2015-09-26T02:44:36.522Z,1015.3
2015-09-26T02:45:36.666Z,1015.1
2015-09-26T02:46:36.433Z,1015.3
2015-09-26T02:47:36.374Z,1015.2
2015-09-26T02:48:36.313Z,1015.3
2015-09-26T02:49:36.269Z,1015.2
2015-09-26T02:50:36.210Z,1015.3
2015-09-26T02:51:36.165Z,1015.2
2015-09-26T02:52:36.121Z,1015.2
2015-09-26T02:53:36.062Z,1015.3
2015-09-26T02:54:36.033Z,1015.2
2015-09-26T02:55:35.955Z,1015.3
2015-09-26T02:56:35.910Z,1015.3
2015-09-26T02:57:36.054Z,1015.3
2015-09-26T02:58:35.807Z,1015.2
2015-09-26T02:59:35.748Z,1015.2
2015-09-26T03:00:35.688Z,1015.1
2015-09-26T03:01:35.643Z,1015.3
2015-09-26T03:02:35.599Z,1015.2
2015-09-26T03:03:35.540Z,1015.3
2015-09-26T03:04:35.496Z,1015.3
2015-09-26T03:05:35.435Z,1015.2
2015-09-26T03:06:35.391Z,1015.3
2015-09-26T03:07:35.332Z,1015.2
2015-09-26T03:08:34.537Z,1015.2
2015-09-26T03:09:35.227Z,1015.2
2015-09-26T03:10:35.183Z,1015.2
2015-09-26T03:11:34.358Z,1015.2
2015-09-26T03:12:35.079Z,1015.2
2015-09-26T03:13:35.223Z,1015.2
2015-09-26T03:14:35.164Z,1015.2
2015-09-26T03:15:34.931Z,1015.2
2015-09-26T03:16:34.872Z,1015.2
2015-09-26T03:17:34.828Z,1015.3
2015-09-26T03:18:34.752Z,1015.3
2015-09-26T03:19:33.959Z,1015.2
2015-09-26T03:20:34.664Z,1015.1
2015-09-26T03:21:34.603Z,1015.2
2015-09-26T03:22:34.544Z,1015.3
2015-09-26T03:23:34.500Z,1015.2
2015-09-26T03:24:34.472Z,1015.3
2015-09-26T03:25:34.397Z,1015.2
2015-09-26T03:26:34.367Z,1015.2
2015-09-26T03:27:33.541Z,1015.2
2015-09-26T03:28:34.248Z,1015.3
2015-09-26T03:29:34.189Z,1015.2
2015-09-26T03:30:34.144Z,1015.2
2015-09-26T03:31:34.335Z,1015.1
2015-09-26T03:32:34.041Z,1015.3
2015-09-26T03:33:34.215Z,1015.1
2015-09-26T03:34:33.936Z,1015.2
2015-09-26T03:35:33.877Z,1015.2
2015-09-26T03:36:33.817Z,1015.3
2015-09-26T03:37:33.788Z,1015.3
2015-09-26T03:38:33.729Z,1015.3
2015-09-26T03:39:33.699Z,1015.2
2015-09-26T03:40:33.624Z,1015.3
2015-09-26T03:41:33.580Z,1015.3
2015-09-26T03:42:33.520Z,1015.3
2015-09-26T03:43:33.460Z,1015.3
2015-09-26T03:44:33.416Z,1015.2
2015-09-26T03:45:33.373Z,1015.3
2015-09-26T03:46:33.297Z,1015.2
2015-09-26T03:47:33.253Z,1015.2
2015-09-26T03:48:33.209Z,1015.3
2015-09-26T03:49:33.149Z,1015.3
2015-09-26T03:50:33.121Z,1015.1
2015-09-26T03:51:33.045Z,1015.2
2015-09-26T03:52:33.017Z,1015.2
2015-09-26T03:53:32.941Z,1015.3
2015-09-26T03:54:32.898Z,1015.3
2015-09-26T03:55:32.837Z,1015.4
2015-09-26T03:56:32.810Z,1015.2
2015-09-26T03:57:32.734Z,1015.4
2015-09-26T03:58:32.690Z,1015.3
2015-09-26T03:59:32.629Z,1015.3
2015-09-26T04:00:32.585Z,1015.3
2015-09-26T04:01:32.525Z,1015.4
2015-09-26T04:02:32.481Z,1015.2
2015-09-26T04:03:32.422Z,1015.3
2015-09-26T04:04:32.378Z,1015.4
2015-09-26T04:05:32.317Z,1015.2
2015-09-26T04:06:32.258Z,1015.4
2015-09-26T04:07:32.226Z,1015.4
2015-09-26T04:08:32.151Z,1015.4
2015-09-26T04:09:32.122Z,1015.3
2015-09-26T04:10:32.047Z,1015.5
2015-09-26T04:11:32.003Z,1015.5
2015-09-26T04:12:31.958Z,1015.3
2015-09-26T04:13:31.900Z,1015.5
2015-09-26T04:14:31.856Z,1015.5
2015-09-26T04:15:31.795Z,1015.5
2015-09-26T04:16:31.970Z,1015.5
2015-09-26T04:17:31.692Z,1015.6
2015-09-26T04:18:31.631Z,1015.6
2015-09-26T04:19:31.791Z,1015.6
2015-09-26T04:20:31.543Z,1015.5
2015-09-26T04:21:31.499Z,1015.5
2015-09-26T04:22:31.424Z,1015.5
2015-09-26T04:23:31.395Z,1015.5
2015-09-26T04:24:31.319Z,1015.5
2015-09-26T04:25:31.291Z,1015.7
2015-09-26T04:26:31.216Z,1015.6
2015-09-26T04:27:31.172Z,1015.6
2015-09-26T04:28:31.113Z,1015.6
2015-09-26T04:29:31.068Z,1015.6
2015-09-26T04:30:31.211Z,1015.6
2015-09-26T04:31:30.949Z,1015.6
2015-09-26T04:32:30.905Z,1015.6
2015-09-26T04:33:30.860Z,1015.4
2015-09-26T04:34:30.816Z,1015.6
2015-09-26T04:35:30.741Z,1015.5
2015-09-26T04:36:30.697Z,1015.6
2015-09-26T04:37:30.652Z,1015.6
2015-09-26T04:38:30.796Z,1015.8
2015-09-26T04:39:30.533Z,1015.7
2015-09-26T04:40:30.489Z,1015.7
2015-09-26T04:41:30.444Z,1015.8
2015-09-26T04:42:30.385Z,1015.7
2015-09-26T04:43:30.325Z,1015.7
2015-09-26T04:44:30.281Z,1015.5
2015-09-26T04:45:30.221Z,1015.7
2015-09-26T04:46:30.177Z,1015.8
2015-09-26T04:47:30.133Z,1015.8
2015-09-26T04:48:30.073Z,1015.7
2015-09-26T04:49:30.029Z,1015.7
2015-09-26T04:50:30.147Z,1015.7
2015-09-26T04:51:29.889Z,1015.7
2015-09-26T04:52:29.834Z,1015.8
2015-09-26T04:53:29.778Z,1015.8
2015-09-26T04:54:29.707Z,1015.8
2015-09-26T04:55:29.642Z,1015.7
2015-09-26T04:56:29.579Z,1015.9
2015-09-26T04:57:29.531Z,1015.8
2015-09-26T04:58:29.717Z,1015.7
2015-09-26T04:59:29.654Z,1015.8
2015-09-26T05:00:29.374Z,1015.8
2015-09-26T05:01:29.311Z,1015.8
2015-09-26T05:02:29.266Z,1015.8
2015-09-26T05:03:29.205Z,1015.9
2015-09-26T05:04:29.159Z,1015.9
2015-09-26T05:05:29.099Z,1015.8
2015-09-26T05:06:29.039Z,1015.9
2015-09-26T05:07:29.228Z,1016
2015-09-26T05:08:28.949Z,1016
2015-09-26T05:09:28.921Z,1015.9
2015-09-26T05:10:28.827Z,1016
2015-09-26T05:11:28.782Z,1016
2015-09-26T05:12:28.723Z,1016
2015-09-26T05:13:28.679Z,1016
2015-09-26T05:14:28.619Z,1015.9
2015-09-26T05:15:28.574Z,1016
2015-09-26T05:16:28.516Z,1016.1
2015-09-26T05:17:28.455Z,1016
2015-09-26T05:18:28.427Z,1016
2015-09-26T05:19:28.352Z,1016
2015-09-26T05:20:28.323Z,1015.9
2015-09-26T05:21:28.263Z,1016
2015-09-26T05:22:28.218Z,1016
2015-09-26T05:23:28.143Z,1016
2015-09-26T05:24:28.099Z,1016
2015-09-26T05:25:28.039Z,1016
2015-09-26T05:26:27.996Z,1016.2
2015-09-26T05:27:28.139Z,1016.1
2015-09-26T05:28:27.892Z,1016.2
2015-09-26T05:29:27.848Z,1016
2015-09-26T05:30:27.773Z,1016
2015-09-26T05:31:27.728Z,1016
2015-09-26T05:32:27.668Z,1016
2015-09-26T05:33:27.623Z,1016.1
2015-09-26T05:34:27.580Z,1016.1
2015-09-26T05:35:27.520Z,1016.1
2015-09-26T05:36:27.461Z,1016.1
2015-09-26T05:37:27.416Z,1016.1
2015-09-26T05:38:27.356Z,1016
2015-09-26T05:39:27.312Z,1016.1
2015-09-26T05:40:27.440Z,1016.1
2015-09-26T05:41:27.208Z,1016.2
2015-09-26T05:42:27.148Z,1016
2015-09-26T05:43:27.089Z,1016
2015-09-26T05:44:27.045Z,1016.1
2015-09-26T05:45:27.001Z,1016.1
2015-09-26T05:46:26.942Z,1016.1
2015-09-26T05:47:26.866Z,1016.2
2015-09-26T05:48:26.837Z,1016.1
2015-09-26T05:49:26.777Z,1016.2
2015-09-26T05:50:26.733Z,1016.1
2015-09-26T05:51:26.658Z,1016.1
2015-09-26T05:52:26.630Z,1016.2
2015-09-26T05:53:26.569Z,1016.2
2015-09-26T05:54:26.510Z,1016.1
2015-09-26T05:55:26.481Z,1016.1
2015-09-26T05:56:26.421Z,1016.2
2015-09-26T05:57:26.346Z,1016.2
2015-09-26T05:58:26.317Z,1016.2
2015-09-26T05:59:26.477Z,1016.1
2015-09-26T06:00:26.197Z,1016.3
2015-09-26T06:01:26.372Z,1016.3
2015-09-26T06:02:26.093Z,1016.2
2015-09-26T06:03:26.034Z,1016.2
2015-09-26T06:04:25.991Z,1016.3
2015-09-26T06:05:25.931Z,1016.1
2015-09-26T06:06:25.886Z,1016.2
2015-09-26T06:07:25.827Z,1016.2
2015-09-26T06:08:25.766Z,1016.1
2015-09-26T06:09:25.722Z,1016.2
2015-09-26T06:10:25.897Z,1016.3
2015-09-26T06:11:25.602Z,1016.1
2015-09-26T06:12:25.574Z,1016.3
2015-09-26T06:13:25.512Z,1016.3
2015-09-26T06:14:25.467Z,1016.3
2015-09-26T06:15:25.392Z,1016.3
2015-09-26T06:16:25.552Z,1016.3
2015-09-26T06:17:25.538Z,1016.3
2015-09-26T06:18:25.243Z,1016.2
2015-09-26T06:19:25.184Z,1016.3
2015-09-26T06:20:25.141Z,1016.4
2015-09-26T06:21:25.081Z,1016.3
2015-09-26T06:22:25.052Z,1016.4
2015-09-26T06:23:24.976Z,1016.4
2015-09-26T06:24:24.932Z,1016.4
2015-09-26T06:25:24.888Z,1016.3
2015-09-26T06:26:24.844Z,1016.3
2015-09-26T06:27:24.768Z,1016.3
2015-09-26T06:28:24.756Z,1016.3
2015-09-26T06:29:24.665Z,1016.4
2015-09-26T06:30:24.620Z,1016.5
2015-09-26T06:31:24.576Z,1016.5
2015-09-26T06:32:24.517Z,1016.5
2015-09-26T06:33:24.457Z,1016.5
2015-09-26T06:34:24.412Z,1016.4
2015-09-26T06:35:24.588Z,1016.4
2015-09-26T06:36:24.308Z,1016.4
2015-09-26T06:37:24.264Z,1016.5
2015-09-26T06:38:24.409Z,1016.5
2015-09-26T06:39:24.145Z,1016.4
2015-09-26T06:40:24.086Z,1016.4
2015-09-26T06:41:24.057Z,1016.5
2015-09-26T06:42:23.998Z,1016.5
2015-09-26T06:43:23.937Z,1016.6
2015-09-26T06:44:24.315Z,1016.4
2015-09-26T06:45:23.834Z,1016.5
2015-09-26T06:46:23.774Z,1016.5
2015-09-26T06:47:23.730Z,1016.5
2015-09-26T06:48:24.123Z,1016.6
2015-09-26T06:49:23.625Z,1016.5
2015-09-26T06:50:23.581Z,1016.5
2015-09-26T06:51:23.538Z,1016.5
2015-09-26T06:52:23.493Z,1016.5
2015-09-26T06:53:23.418Z,1016.5
2015-09-26T06:54:23.389Z,1016.4
2015-09-26T06:55:23.313Z,1016.5
2015-09-26T06:56:23.269Z,1016.4
2015-09-26T06:57:23.210Z,1016.5
2015-09-26T06:58:23.150Z,1016.4
2015-09-26T06:59:23.106Z,1016.5
2015-09-26T07:00:23.046Z,1016.4
2015-09-26T07:01:23.002Z,1016.4
2015-09-26T07:02:22.988Z,1016.4
2015-09-26T07:03:22.898Z,1016.5
2015-09-26T07:04:22.838Z,1016.4
2015-09-26T07:05:22.810Z,1016.5
2015-09-26T07:06:22.750Z,1016.3
2015-09-26T07:07:22.690Z,1016.5
2015-09-26T07:08:22.646Z,1016.5
2015-09-26T07:09:22.587Z,1016.5
2015-09-26T07:10:22.558Z,1016.5
2015-09-26T07:11:22.482Z,1016.6
2015-09-26T07:12:22.438Z,1016.5
2015-09-26T07:13:22.379Z,1016.4
2015-09-26T07:14:22.334Z,1016.5
2015-09-26T07:15:22.274Z,1016.5
2015-09-26T07:16:22.231Z,1016.5
2015-09-26T07:17:22.186Z,1016.5
2015-09-26T07:18:22.126Z,1016.4
2015-09-26T07:19:21.925Z,1016.5
2015-09-26T07:20:21.867Z,1016.5
2015-09-26T07:21:21.978Z,1016.6
2015-09-26T07:22:21.915Z,1016.6
2015-09-26T07:23:21.856Z,1016.5
2015-09-26T07:24:21.812Z,1016.6
2015-09-26T07:25:21.753Z,1016.5
2015-09-26T07:26:21.708Z,1016.6
2015-09-26T07:27:21.648Z,1016.4
2015-09-26T07:28:21.603Z,1016.5
2015-09-26T07:29:21.545Z,1016.5
2015-09-26T07:30:21.484Z,1016.6
2015-09-26T07:31:21.440Z,1016.6
2015-09-26T07:32:21.397Z,1016.6
2015-09-26T07:33:21.336Z,1016.6
2015-09-26T07:34:21.292Z,1016.6
2015-09-26T07:35:21.233Z,1016.6
2015-09-26T07:36:21.032Z,1016.6
2015-09-26T07:37:21.128Z,1016.6
2015-09-26T07:38:21.084Z,1016.6
2015-09-26T07:39:21.041Z,1016.6
2015-09-26T07:40:20.980Z,1016.6
2015-09-26T07:41:20.936Z,1016.5
2015-09-26T07:42:20.877Z,1016.6
2015-09-26T07:43:20.833Z,1016.5
2015-09-26T07:44:20.788Z,1016.7
2015-09-26T07:45:20.775Z,1016.7
2015-09-26T07:46:20.669Z,1016.7
2015-09-26T07:47:20.625Z,1016.7
2015-09-26T07:48:20.580Z,1016.6
2015-09-26T07:49:20.521Z,1016.5
2015-09-26T07:50:20.477Z,1016.7
2015-09-26T07:51:20.416Z,1016.7
2015-09-26T07:52:20.372Z,1016.7
2015-09-26T07:53:20.313Z,1016.7
2015-09-26T07:54:20.363Z,1016.7
2015-09-26T07:55:20.241Z,1016.6
2015-09-26T07:56:19.447Z,1016.6
2015-09-26T07:57:20.325Z,1016.7
2015-09-26T07:58:20.078Z,1016.7
2015-09-26T07:59:20.017Z,1016.6
2015-09-26T08:00:19.973Z,1016.8
2015-09-26T08:01:20.180Z,1016.6
2015-09-26T08:02:20.072Z,1016.6
2015-09-26T08:03:20.013Z,1016.7
2015-09-26T08:04:19.766Z,1016.8
2015-09-26T08:05:19.722Z,1016.6
2015-09-26T08:06:19.662Z,1016.6
2015-09-26T08:07:19.622Z,1016.8
2015-09-26T08:08:19.578Z,1016.7
2015-09-26T08:09:19.518Z,1016.8
2015-09-26T08:10:19.678Z,1016.8
2015-09-26T08:11:19.415Z,1016.8
2015-09-26T08:12:19.371Z,1016.8
2015-09-26T08:13:19.310Z,1016.8
2015-09-26T08:14:19.266Z,1016.7
2015-09-26T08:15:19.208Z,1016.8
2015-09-26T08:16:19.163Z,1016.9
2015-09-26T08:17:19.103Z,1016.8
2015-09-26T08:18:19.060Z,1016.9
2015-09-26T08:19:19.016Z,1016.8
2015-09-26T08:20:18.971Z,1016.8
2015-09-26T08:21:18.896Z,1016.8
2015-09-26T08:22:18.852Z,1016.8
2015-09-26T08:23:19.027Z,1016.8
2015-09-26T08:24:18.747Z,1016.8
2015-09-26T08:25:18.688Z,1016.8
2015-09-26T08:26:18.644Z,1016.8
2015-09-26T08:27:18.819Z,1016.8
2015-09-26T08:28:18.541Z,1016.7
2015-09-26T08:29:18.480Z,1016.9
2015-09-26T08:30:18.436Z,1016.8
2015-09-26T08:31:18.391Z,1017
2015-09-26T08:32:18.329Z,1016.8
2015-09-26T08:33:18.301Z,1016.8
2015-09-26T08:34:18.226Z,1016.9
2015-09-26T08:35:18.603Z,1016.8
2015-09-26T08:36:18.324Z,1016.8
2015-09-26T08:37:18.077Z,1016.8
2015-09-26T08:38:18.032Z,1016.8
2015-09-26T08:39:17.973Z,1016.8
2015-09-26T08:40:17.929Z,1016.8
2015-09-26T08:41:18.057Z,1016.8
2015-09-26T08:42:18.059Z,1016.9
2015-09-26T08:43:17.782Z,1016.8
2015-09-26T08:44:17.721Z,1016.9
2015-09-26T08:45:17.677Z,1016.8
2015-09-26T08:46:17.618Z,1016.8
2015-09-26T08:47:17.557Z,1016.8
2015-09-26T08:48:17.514Z,1017
2015-09-26T08:49:17.470Z,1016.8
2015-09-26T08:50:17.410Z,1016.8
2015-09-26T08:51:17.365Z,1016.8
2015-09-26T08:52:17.321Z,1016.8
2015-09-26T08:53:17.465Z,1016.8
2015-09-26T08:54:17.218Z,1016.8
2015-09-26T08:55:17.173Z,1016.9
2015-09-26T08:56:17.114Z,1016.8
2015-09-26T08:57:17.085Z,1016.9
2015-09-26T08:58:17.244Z,1016.8
2015-09-26T08:59:17.097Z,1016.8
2015-09-26T09:00:16.985Z,1016.9
2015-09-26T09:01:16.863Z,1016.9
2015-09-26T09:02:16.803Z,1016.8
2015-09-26T09:03:16.759Z,1016.8
2015-09-26T09:04:16.715Z,1016.8
2015-09-26T09:05:16.873Z,1016.8
2015-09-26T09:06:16.642Z,1016.8
2015-09-26T09:07:16.567Z,1017
2015-09-26T09:08:16.506Z,1016.8
2015-09-26T09:09:16.462Z,1016.9
2015-09-26T09:10:16.407Z,1017
2015-09-26T09:11:16.364Z,1016.8
2015-09-26T09:12:16.319Z,1017
2015-09-26T09:13:16.259Z,1016.8
2015-09-26T09:14:16.434Z,1016.8
2015-09-26T09:15:16.172Z,1016.9
2015-09-26T09:16:16.112Z,1016.9
2015-09-26T09:17:16.067Z,1016.8
2015-09-26T09:18:16.023Z,1016.8
2015-09-26T09:19:15.964Z,1016.8
2015-09-26T09:20:16.106Z,1016.8
2015-09-26T09:21:15.859Z,1016.8
2015-09-26T09:22:15.081Z,1016.9
2015-09-26T09:23:15.756Z,1016.9
2015-09-26T09:24:15.697Z,1016.8
2015-09-26T09:25:15.667Z,1016.8
2015-09-26T09:26:15.608Z,1016.8
2015-09-26T09:27:15.564Z,1016.7
2015-09-26T09:28:15.707Z,1016.9
2015-09-26T09:29:15.444Z,1016.9
2015-09-26T09:30:15.415Z,1016.8
2015-09-26T09:31:15.356Z,1017
2015-09-26T09:32:15.312Z,1017
2015-09-26T09:33:15.250Z,1016.8
2015-09-26T09:34:15.205Z,1016.8
2015-09-26T09:35:15.144Z,1016.9
2015-09-26T09:36:15.101Z,1016.8
2015-09-26T09:37:15.275Z,1016.8
2015-09-26T09:38:14.997Z,1016.7
2015-09-26T09:39:14.953Z,1016.8
2015-09-26T09:40:14.894Z,1016.7
2015-09-26T09:41:15.099Z,1016.7
2015-09-26T09:42:14.993Z,1016.7
2015-09-26T09:43:14.761Z,1016.7
2015-09-26T09:44:14.935Z,1016.7
2015-09-26T09:45:14.657Z,1016.7
2015-09-26T09:46:14.613Z,1016.7
2015-09-26T09:47:14.553Z,1016.8
2015-09-26T09:48:14.509Z,1016.8
2015-09-26T09:49:14.683Z,1016.8
2015-09-26T09:50:14.405Z,1016.9
2015-09-26T09:51:13.595Z,1016.8
2015-09-26T09:52:14.332Z,1016.8
2015-09-26T09:53:14.241Z,1016.7
2015-09-26T09:54:14.197Z,1016.8
2015-09-26T09:55:14.141Z,1016.8
2015-09-26T09:56:14.331Z,1016.8
2015-09-26T09:57:14.053Z,1016.8
2015-09-26T09:58:13.994Z,1016.8
2015-09-26T09:59:13.949Z,1016.9
2015-09-26T10:00:13.889Z,1016.9
2015-09-26T10:01:13.845Z,1016.9
2015-09-26T10:02:13.817Z,1016.8
2015-09-26T10:03:13.741Z,1016.8
2015-09-26T10:04:13.697Z,1016.7
2015-09-26T10:05:13.638Z,1016.6
2015-09-26T10:06:13.608Z,1016.8
2015-09-26T10:07:13.549Z,1016.7
2015-09-26T10:08:13.505Z,1016.7
2015-09-26T10:09:13.444Z,1016.7
2015-09-26T10:10:13.401Z,1016.7
2015-09-26T10:11:13.341Z,1016.7
2015-09-26T10:12:13.297Z,1016.7
2015-09-26T10:13:13.253Z,1016.6
2015-09-26T10:14:13.193Z,1016.7
2015-09-26T10:15:13.165Z,1016.8
2015-09-26T10:16:13.104Z,1016.7
2015-09-26T10:17:13.061Z,1016.8
2015-09-26T10:18:13.001Z,1016.9
2015-09-26T10:19:12.941Z,1016.8
2015-09-26T10:20:12.913Z,1016.9
2015-09-26T10:21:12.853Z,1016.9
2015-09-26T10:22:12.793Z,1016.8
2015-09-26T10:23:12.733Z,1016.8
2015-09-26T10:24:12.704Z,1016.8
2015-09-26T10:25:12.629Z,1016.8
2015-09-26T10:26:12.585Z,1016.8
2015-09-26T10:27:12.540Z,1016.7
2015-09-26T10:28:12.481Z,1017
2015-09-26T10:29:12.437Z,1016.9
2015-09-26T10:30:12.393Z,1017
2015-09-26T10:31:12.333Z,1016.9
2015-09-26T10:32:12.290Z,1017
2015-09-26T10:33:12.229Z,1016.9
2015-09-26T10:34:12.388Z,1016.8
2015-09-26T10:35:12.156Z,1016.7
2015-09-26T10:36:12.081Z,1016.8
2015-09-26T10:37:12.053Z,1016.8
2015-09-26T10:38:11.978Z,1016.8
2015-09-26T10:39:11.933Z,1016.8
2015-09-26T10:40:11.889Z,1016.9
2015-09-26T10:41:11.842Z,1016.8
2015-09-26T10:42:11.798Z,1016.8
2015-09-26T10:43:11.753Z,1016.8
2015-09-26T10:44:11.709Z,1016.7
2015-09-26T10:45:11.634Z,1016.8
2015-09-26T10:46:11.590Z,1016.8
2015-09-26T10:47:11.545Z,1016.8
2015-09-26T10:48:11.720Z,1016.8
2015-09-26T10:49:11.441Z,1016.9
2015-09-26T10:50:11.819Z,1016.9
2015-09-26T10:51:11.338Z,1017
2015-09-26T10:52:11.294Z,1017
2015-09-26T10:53:11.250Z,1017
2015-09-26T10:54:11.205Z,1016.9
2015-09-26T10:55:11.130Z,1017
2015-09-26T10:56:11.102Z,1016.9
2015-09-26T10:57:11.244Z,1016.9
2015-09-26T10:58:10.998Z,1017
2015-09-26T10:59:10.938Z,1016.9
2015-09-26T11:00:10.128Z,1016.9
2015-09-26T11:01:10.850Z,1017
2015-09-26T11:02:10.790Z,1016.8
2015-09-26T11:03:10.746Z,1016.8
2015-09-26T11:04:10.686Z,1016.7
2015-09-26T11:05:10.641Z,1016.7
2015-09-26T11:06:10.582Z,1016.7
2015-09-26T11:07:10.538Z,1016.8
2015-09-26T11:08:10.478Z,1016.7
2015-09-26T11:09:10.434Z,1016.7
2015-09-26T11:10:10.390Z,1016.8
2015-09-26T11:11:10.345Z,1016.8
2015-09-26T11:12:10.286Z,1016.6
2015-09-26T11:13:10.460Z,1016.7
2015-09-26T11:14:10.416Z,1016.7
2015-09-26T11:15:10.121Z,1016.9
2015-09-26T11:16:10.094Z,1016.8
2015-09-26T11:17:10.034Z,1016.9
2015-09-26T11:18:09.990Z,1016.9
2015-09-26T11:19:10.165Z,1016.8
2015-09-26T11:20:09.901Z,1016.8
2015-09-26T11:21:09.842Z,1017
2015-09-26T11:22:09.798Z,1017.1
2015-09-26T11:23:09.737Z,1016.9
2015-09-26T11:24:09.912Z,1016.9
2015-09-26T11:25:09.634Z,1017
2015-09-26T11:26:09.590Z,1017
2015-09-26T11:27:09.529Z,1017
2015-09-26T11:28:09.486Z,1017
2015-09-26T11:29:09.442Z,1017
2015-09-26T11:30:09.381Z,1016.9
2015-09-26T11:31:09.338Z,1017.1
2015-09-26T11:32:09.293Z,1017
2015-09-26T11:33:09.234Z,1017
2015-09-26T11:34:09.189Z,1017
2015-09-26T11:35:09.145Z,1017
2015-09-26T11:36:09.086Z,1016.8
2015-09-26T11:37:09.042Z,1016.9
2015-09-26T11:38:09.201Z,1016.9
2015-09-26T11:39:08.937Z,1016.9
2015-09-26T11:40:08.894Z,1017
2015-09-26T11:41:08.849Z,1016.9
2015-09-26T11:42:08.789Z,1016.9
2015-09-26T11:43:08.761Z,1016.8
2015-09-26T11:44:08.683Z,1016.8
2015-09-26T11:45:08.639Z,1016.8
2015-09-26T11:46:08.594Z,1016.8
2015-09-26T11:47:08.535Z,1016.7
2015-09-26T11:48:08.491Z,1016.8
2015-09-26T11:49:08.649Z,1016.6
2015-09-26T11:50:08.402Z,1016.7
2015-09-26T11:51:08.358Z,1016.7
2015-09-26T11:52:08.345Z,1016.5
2015-09-26T11:53:08.239Z,1016.6
2015-09-26T11:54:08.194Z,1016.6
2015-09-26T11:55:08.150Z,1016.6
2015-09-26T11:56:08.091Z,1016.5
2015-09-26T11:57:08.046Z,1016.6
2015-09-26T11:58:08.002Z,1016.6
2015-09-26T11:59:07.957Z,1016.5
2015-09-26T12:00:07.898Z,1016.6
2015-09-26T12:01:07.839Z,1016.6
2015-09-26T12:02:07.810Z,1016.6
2015-09-26T12:03:07.750Z,1016.6
2015-09-26T12:04:07.707Z,1016.6
2015-09-26T12:05:07.647Z,1016.7
2015-09-26T12:06:07.055Z,1016.5
2015-09-26T12:07:07.543Z,1016.5
2015-09-26T12:08:07.514Z,1016.5
2015-09-26T12:09:07.438Z,1016.6
2015-09-26T12:10:07.394Z,1016.7
2015-09-26T12:11:07.335Z,1016.6
2015-09-26T12:12:07.306Z,1016.7
2015-09-26T12:13:07.482Z,1016.7
2015-09-26T12:14:07.202Z,1016.6
2015-09-26T12:15:07.143Z,1016.5
2015-09-26T12:16:07.082Z,1016.5
2015-09-26T12:17:07.054Z,1016.5
2015-09-26T12:18:06.995Z,1016.5
2015-09-26T12:19:06.951Z,1016.6
2015-09-26T12:20:06.890Z,1016.5
2015-09-26T12:21:06.846Z,1016.5
2015-09-26T12:22:06.786Z,1016.4
2015-09-26T12:23:06.727Z,1016.5
2015-09-26T12:24:06.699Z,1016.4
2015-09-26T12:25:06.639Z,1016.5
2015-09-26T12:26:06.579Z,1016.5
2015-09-26T12:27:06.550Z,1016.5
2015-09-26T12:28:06.475Z,1016.6
2015-09-26T12:29:06.446Z,1016.5
2015-09-26T12:30:06.386Z,1016.4
2015-09-26T12:31:06.326Z,1016.7
2015-09-26T12:32:06.267Z,1016.7
2015-09-26T12:33:06.238Z,1016.7